Time;durP1;ratioP1;P1;durP2;ratioP2;P2;SDS_P1;SDS_P2;PMS_P1;PMS_P2;Temp;Humidity;BMP_temperature;BMP_pressure;BME280_temperature;BME280_humidity;BME280_pressure;Samples;Min_cycle;Max_cycle;Signal;HPM_P1;HPM_P2
2022/04/14 00:01:20;;;;;;;;;;;13.10;97.30;;;;;;5070567;28;19913;-71
2022/04/14 00:03:46;;;;;;;;;;;13.00;97.90;;;;;;5063828;28;20377;-71
2022/04/14 00:06:11;;;;;;;;;;;13.00;97.60;;;;;;5065394;28;19918;-70
2022/04/14 00:08:37;;;;;;;;;;;13.00;97.80;;;;;;5072260;28;19930;-69
2022/04/14 00:11:03;;;;;;;;;;;13.00;97.80;;;;;;5072182;28;19917;-70
2022/04/14 00:13:29;;;;;;;;;;;13.00;98.00;;;;;;5058888;28;20356;-69
2022/04/14 00:15:54;;;;;;;;;;;13.00;98.00;;;;;;5052108;28;19908;-70
2022/04/14 00:18:20;;;;;;;;;;;12.90;98.20;;;;;;5034083;28;20375;-71
2022/04/14 00:20:47;;;;;;;;;;;12.90;98.20;;;;;;5059926;28;19963;-71
2022/04/14 00:23:12;;;;;;;;;;;12.90;98.30;;;;;;5053987;28;19913;-70
2022/04/14 00:25:38;;;;;;;;;;;12.90;98.40;;;;;;5071865;28;19978;-70
2022/04/14 00:28:04;;;;;;;;;;;12.90;98.40;;;;;;5072201;28;20034;-71
2022/04/14 00:30:30;;;;;;;;;;;13.00;98.20;;;;;;5071890;28;19928;-71
2022/04/14 00:32:56;;;;;;;;;;;13.00;98.10;;;;;;5072188;28;19975;-70
2022/04/14 00:35:22;;;;;;;;;;;13.00;98.00;;;;;;5071870;28;19912;-71
2022/04/14 00:37:48;;;;;;;;;;;13.00;98.10;;;;;;5053597;28;19908;-70
2022/04/14 00:40:14;;;;;;;;;;;13.00;98.10;;;;;;5071638;28;19909;-70
2022/04/14 00:42:39;;;;;;;;;;;13.00;98.10;;;;;;5072041;28;19947;-71
2022/04/14 00:45:09;;;;;;;;;;;13.00;98.20;;;;;;5071639;28;19916;-70
2022/04/14 00:47:35;;;;;;;;;;;13.00;98.30;;;;;;5063737;28;19960;-70
2022/04/14 00:50:02;;;;;;;;;;;13.00;98.20;;;;;;5051413;28;19964;-70
2022/04/14 00:52:27;;;;;;;;;;;13.00;98.10;;;;;;5051663;28;19927;-70
2022/04/14 00:54:53;;;;;;;;;;;13.00;98.30;;;;;;5050510;28;19909;-70
2022/04/14 00:57:19;;;;;;;;;;;13.00;98.40;;;;;;5051408;28;20301;-70
2022/04/14 00:59:45;;;;;;;;;;;13.00;98.40;;;;;;5051561;28;19916;-70
2022/04/14 01:02:11;;;;;;;;;;;13.00;98.50;;;;;;5051323;28;19909;-69
2022/04/14 01:04:37;;;;;;;;;;;13.00;98.60;;;;;;5051581;28;19917;-70
2022/04/14 01:07:06;;;;;;;;;;;13.00;98.30;;;;;;5051371;28;19908;-70
2022/04/14 01:09:33;;;;;;;;;;;13.00;98.30;;;;;;5062360;28;20299;-70
2022/04/14 01:11:59;;;;;;;;;;;13.00;98.00;;;;;;5057002;28;20328;-70
2022/04/14 01:14:29;;;;;;;;;;;13.00;98.10;;;;;;5051363;28;20003;-71
2022/04/14 01:16:56;;;;;;;;;;;13.00;98.00;;;;;;5053379;28;19909;-69
2022/04/14 01:19:23;;;;;;;;;;;13.10;97.80;;;;;;5071306;28;19943;-69
2022/04/14 01:22:00;;;;;;;;;;;13.10;97.70;;;;;;5070745;28;19916;-70
2022/04/14 01:24:26;;;;;;;;;;;13.10;97.70;;;;;;5053235;28;19935;-69
2022/04/14 01:26:53;;;;;;;;;;;13.20;97.60;;;;;;5070953;28;19995;-70
2022/04/14 01:29:22;;;;;;;;;;;13.20;97.60;;;;;;5050455;28;19912;-71
2022/04/14 01:31:49;;;;;;;;;;;13.20;97.50;;;;;;5051250;28;19916;-71
2022/04/14 01:34:14;;;;;;;;;;;13.20;97.50;;;;;;5056520;28;20229;-70
2022/04/14 01:36:40;;;;;;;;;;;13.20;97.30;;;;;;5071209;28;19920;-70
2022/04/14 01:39:08;;;;;;;;;;;13.20;97.40;;;;;;5071018;28;19954;-71
2022/04/14 01:41:34;;;;;;;;;;;13.30;97.50;;;;;;5053238;28;19986;-71
2022/04/14 01:44:00;;;;;;;;;;;13.20;97.60;;;;;;5052721;28;19908;-70
2022/04/14 01:46:26;;;;;;;;;;;13.30;97.30;;;;;;5052789;28;20257;-71
2022/04/14 01:48:52;;;;;;;;;;;13.30;97.60;;;;;;5071121;28;19912;-70
2022/04/14 01:51:19;;;;;;;;;;;13.30;97.40;;;;;;5070811;28;20313;-71
2022/04/14 01:53:45;;;;;;;;;;;13.30;97.50;;;;;;5071067;28;19912;-71
2022/04/14 01:56:11;;;;;;;;;;;13.30;97.50;;;;;;5070988;28;19916;-71
2022/04/14 01:58:37;;;;;;;;;;;13.30;97.30;;;;;;5071049;28;20019;-70
2022/04/14 02:01:03;;;;;;;;;;;13.30;97.20;;;;;;5068292;28;20388;-70
2022/04/14 02:03:29;;;;;;;;;;;13.30;97.00;;;;;;5070825;28;19916;-70
2022/04/14 02:05:54;;;;;;;;;;;13.40;97.00;;;;;;5051684;28;19917;-69
2022/04/14 02:08:21;;;;;;;;;;;13.40;96.90;;;;;;5054491;28;19916;-69
2022/04/14 02:10:47;;;;;;;;;;;13.40;96.80;;;;;;5054104;28;19954;-70
2022/04/14 02:13:12;;;;;;;;;;;13.50;96.60;;;;;;5036089;28;19909;-70
2022/04/14 02:15:38;;;;;;;;;;;13.50;96.50;;;;;;5036086;28;20008;-70
2022/04/14 02:18:04;;;;;;;;;;;13.50;96.40;;;;;;5054045;28;19909;-69
2022/04/14 02:20:30;;;;;;;;;;;13.50;96.50;;;;;;5054402;28;19909;-70
2022/04/14 02:22:56;;;;;;;;;;;13.60;96.50;;;;;;5053930;28;19921;-69
2022/04/14 02:25:21;;;;;;;;;;;13.60;96.30;;;;;;5053766;28;20035;-70
2022/04/14 02:27:47;;;;;;;;;;;13.60;96.30;;;;;;5053990;28;20268;-69
2022/04/14 02:30:13;;;;;;;;;;;13.60;96.60;;;;;;5053764;28;19996;-71
2022/04/14 02:32:39;;;;;;;;;;;13.60;96.50;;;;;;5054229;28;19916;-71
2022/04/14 02:35:05;;;;;;;;;;;13.60;96.70;;;;;;5053841;28;19955;-71
2022/04/14 02:37:31;;;;;;;;;;;13.60;96.80;;;;;;5054128;28;20011;-70
2022/04/14 02:39:57;;;;;;;;;;;13.50;97.00;;;;;;5053707;28;19956;-71
2022/04/14 02:42:22;;;;;;;;;;;13.60;97.00;;;;;;5052360;28;19909;-72
2022/04/14 02:44:48;;;;;;;;;;;13.50;97.10;;;;;;5054012;28;19917;-71
2022/04/14 02:47:14;;;;;;;;;;;13.50;97.10;;;;;;5052157;28;20019;-71
2022/04/14 02:49:40;;;;;;;;;;;13.50;97.10;;;;;;5053931;28;19938;-71
2022/04/14 02:52:06;;;;;;;;;;;13.50;97.30;;;;;;5069020;28;19912;-71
2022/04/14 02:54:37;;;;;;;;;;;13.50;97.70;;;;;;5073795;28;19919;-70
2022/04/14 02:57:05;;;;;;;;;;;13.40;97.80;;;;;;5055937;28;19976;-71
2022/04/14 02:59:31;;;;;;;;;;;13.40;98.10;;;;;;5074122;28;20344;-70
2022/04/14 03:01:57;;;;;;;;;;;13.40;97.90;;;;;;5074083;28;19974;-70
2022/04/14 03:04:23;;;;;;;;;;;13.40;98.10;;;;;;5073943;28;20306;-71
2022/04/14 03:06:49;;;;;;;;;;;13.40;98.00;;;;;;5055760;28;19909;-70
2022/04/14 03:09:15;;;;;;;;;;;13.30;98.30;;;;;;5074541;28;20263;-71
2022/04/14 03:11:40;;;;;;;;;;;13.30;98.40;;;;;;5073930;28;19999;-70
2022/04/14 03:14:06;;;;;;;;;;;13.30;98.50;;;;;;5073859;28;19908;-71
2022/04/14 03:16:32;;;;;;;;;;;13.20;98.90;;;;;;5074095;28;19919;-70
2022/04/14 03:18:58;;;;;;;;;;;13.20;98.90;;;;;;5055234;28;19959;-71
2022/04/14 03:21:23;;;;;;;;;;;13.20;98.90;;;;;;5073400;28;19916;-70
2022/04/14 03:23:50;;;;;;;;;;;13.20;99.10;;;;;;5073517;28;20284;-70
2022/04/14 03:26:16;;;;;;;;;;;13.20;99.20;;;;;;5056178;28;19912;-70
2022/04/14 03:28:42;;;;;;;;;;;13.20;99.30;;;;;;5074802;28;20268;-70
2022/04/14 03:31:08;;;;;;;;;;;13.20;99.50;;;;;;5070207;28;20479;-69
2022/04/14 03:33:33;;;;;;;;;;;13.20;99.20;;;;;;5057105;28;19981;-69
2022/04/14 03:35:59;;;;;;;;;;;13.20;99.30;;;;;;5043978;28;20003;-71
2022/04/14 03:38:25;;;;;;;;;;;13.20;99.10;;;;;;5065197;28;20001;-71
2022/04/14 03:40:51;;;;;;;;;;;13.30;98.80;;;;;;5074510;28;19912;-71
2022/04/14 03:43:17;;;;;;;;;;;13.30;98.90;;;;;;5073945;28;20420;-71
2022/04/14 03:45:42;;;;;;;;;;;13.30;98.80;;;;;;5074165;28;19972;-71
2022/04/14 03:48:09;;;;;;;;;;;13.40;98.70;;;;;;5073705;28;19920;-71
2022/04/14 03:50:35;;;;;;;;;;;13.40;98.60;;;;;;5069431;28;19915;-70
2022/04/14 03:53:01;;;;;;;;;;;13.40;98.80;;;;;;5061673;28;19917;-71
2022/04/14 03:55:27;;;;;;;;;;;13.40;98.80;;;;;;5073552;28;19954;-71
2022/04/14 03:57:53;;;;;;;;;;;13.50;98.90;;;;;;5073507;28;19935;-71
2022/04/14 04:00:19;;;;;;;;;;;13.40;99.00;;;;;;5073435;28;19909;-70
2022/04/14 04:02:44;;;;;;;;;;;13.40;99.00;;;;;;5073859;28;19995;-70
2022/04/14 04:05:11;;;;;;;;;;;13.40;99.40;;;;;;5073470;28;20049;-71
2022/04/14 04:07:37;;;;;;;;;;;13.40;99.50;;;;;;5073020;28;19961;-71
2022/04/14 04:10:04;;;;;;;;;;;13.40;99.40;;;;;;5067716;28;19912;-70
2022/04/14 04:12:30;;;;;;;;;;;13.40;99.40;;;;;;5060776;28;20317;-69
2022/04/14 04:14:56;;;;;;;;;;;13.40;99.40;;;;;;5069408;28;20047;-71
2022/04/14 04:17:21;;;;;;;;;;;13.40;99.40;;;;;;5073417;28;20015;-70
2022/04/14 04:19:47;;;;;;;;;;;13.50;99.60;;;;;;5074480;28;19919;-69
2022/04/14 04:22:13;;;;;;;;;;;13.50;99.30;;;;;;5073891;28;19920;-69
2022/04/14 04:24:39;;;;;;;;;;;13.60;99.90;;;;;;5074309;28;19958;-70
2022/04/14 04:27:06;;;;;;;;;;;13.50;99.40;;;;;;5071898;28;19921;-70
2022/04/14 04:29:32;;;;;;;;;;;13.50;99.40;;;;;;5065751;28;19938;-70
2022/04/14 04:31:58;;;;;;;;;;;13.50;99.50;;;;;;5035775;28;19966;-70
2022/04/14 04:34:24;;;;;;;;;;;13.50;99.30;;;;;;5054223;28;19915;-71
2022/04/14 04:36:50;;;;;;;;;;;13.50;99.60;;;;;;5053737;28;19909;-70
2022/04/14 04:39:16;;;;;;;;;;;13.50;99.80;;;;;;5054230;28;20367;-71
2022/04/14 04:41:42;;;;;;;;;;;13.50;99.90;;;;;;5053546;28;19909;-71
2022/04/14 04:44:09;;;;;;;;;;;13.40;99.90;;;;;;5053568;28;19954;-70
2022/04/14 04:46:35;;;;;;;;;;;13.40;99.90;;;;;;5053904;28;19995;-70
2022/04/14 04:49:01;;;;;;;;;;;13.40;99.90;;;;;;5053506;28;19988;-72
2022/04/14 04:51:27;;;;;;;;;;;13.40;99.90;;;;;;5053136;28;19974;-71
2022/04/14 04:53:53;;;;;;;;;;;13.40;99.90;;;;;;5053184;28;19909;-71
2022/04/14 04:56:19;;;;;;;;;;;13.40;99.90;;;;;;5053513;28;20015;-71
2022/04/14 04:58:45;;;;;;;;;;;13.40;99.90;;;;;;5053013;28;19935;-68
2022/04/14 05:01:11;;;;;;;;;;;13.30;99.90;;;;;;5053234;28;20357;-69
2022/04/14 05:03:36;;;;;;;;;;;13.30;99.90;;;;;;5053119;28;19999;-69
2022/04/14 05:06:02;;;;;;;;;;;13.40;99.90;;;;;;5052566;28;19917;-70
2022/04/14 05:08:28;;;;;;;;;;;13.40;99.90;;;;;;5053106;28;19921;-70
2022/04/14 05:10:54;;;;;;;;;;;13.40;99.90;;;;;;5053038;28;19962;-70
2022/04/14 05:13:19;;;;;;;;;;;13.50;99.90;;;;;;5052852;28;19944;-70
2022/04/14 05:15:45;;;;;;;;;;;13.50;99.90;;;;;;5034916;28;19909;-70
2022/04/14 05:18:11;;;;;;;;;;;13.50;99.90;;;;;;5053222;28;19955;-70
2022/04/14 05:20:38;;;;;;;;;;;13.50;99.90;;;;;;5053188;28;20069;-68
2022/04/14 05:23:07;;;;;;;;;;;13.60;99.90;;;;;;5052845;28;20253;-69
2022/04/14 05:25:32;;;;;;;;;;;13.60;99.90;;;;;;5052963;28;20383;-69
2022/04/14 05:27:58;;;;;;;;;;;13.70;99.90;;;;;;5052770;28;19913;-68
2022/04/14 05:30:25;;;;;;;;;;;13.80;99.90;;;;;;5053077;28;19962;-70
2022/04/14 05:32:50;;;;;;;;;;;13.90;99.90;;;;;;5053352;28;19908;-72
2022/04/14 05:35:28;;;;;;;;;;;13.90;99.90;;;;;;5052587;28;19996;-72
2022/04/14 05:37:54;;;;;;;;;;;13.90;99.90;;;;;;5053040;28;19944;-74
2022/04/14 05:40:20;;;;;;;;;;;14.10;99.90;;;;;;5052740;28;19916;-73
2022/04/14 05:42:46;;;;;;;;;;;14.20;99.60;;;;;;5056963;28;20078;-74
2022/04/14 05:45:12;;;;;;;;;;;14.30;99.60;;;;;;5056471;28;19920;-75
2022/04/14 05:47:38;;;;;;;;;;;14.40;99.50;;;;;;5056692;28;20000;-74
2022/04/14 05:50:04;;;;;;;;;;;14.40;99.90;;;;;;5056493;28;19920;-74
2022/04/14 05:52:30;;;;;;;;;;;14.40;99.50;;;;;;5056593;28;19969;-74
2022/04/14 05:55:01;;;;;;;;;;;14.50;99.60;;;;;;5056647;28;20409;-73
2022/04/14 05:57:28;;;;;;;;;;;14.50;99.30;;;;;;5056571;28;20364;-75
2022/04/14 05:59:53;;;;;;;;;;;14.60;99.50;;;;;;5038172;28;19916;-75
2022/04/14 06:02:19;;;;;;;;;;;14.60;99.30;;;;;;5056131;28;19913;-75
2022/04/14 06:04:45;;;;;;;;;;;14.70;99.00;;;;;;5055703;28;19917;-74
2022/04/14 06:07:11;;;;;;;;;;;14.70;99.20;;;;;;5055807;28;19994;-74
2022/04/14 06:09:37;;;;;;;;;;;14.70;99.30;;;;;;5057144;28;19913;-74
2022/04/14 06:12:03;;;;;;;;;;;14.70;99.40;;;;;;5056130;28;20265;-74
2022/04/14 06:14:30;;;;;;;;;;;14.80;99.60;;;;;;5048338;28;20288;-71
2022/04/14 06:16:56;;;;;;;;;;;14.70;99.90;;;;;;5072259;28;19919;-71
2022/04/14 06:19:22;;;;;;;;;;;14.70;99.90;;;;;;5076501;28;19908;-73
2022/04/14 06:21:48;;;;;;;;;;;14.80;99.60;;;;;;5075814;28;19920;-73
2022/04/14 06:24:14;;;;;;;;;;;14.80;99.80;;;;;;5076174;28;19908;-74
2022/04/14 06:26:40;;;;;;;;;;;15.00;99.60;;;;;;5076323;28;19918;-75
2022/04/14 06:29:05;;;;;;;;;;;15.10;99.40;;;;;;5057995;28;20340;-74
2022/04/14 06:31:31;;;;;;;;;;;15.20;99.30;;;;;;5075870;28;19909;-73
2022/04/14 06:33:58;;;;;;;;;;;15.30;99.20;;;;;;5076181;28;19915;-73
2022/04/14 06:36:23;;;;;;;;;;;15.40;99.30;;;;;;5075660;28;19908;-73
2022/04/14 06:38:49;;;;;;;;;;;15.50;99.50;;;;;;5075579;28;20015;-73
2022/04/14 06:41:15;;;;;;;;;;;15.50;99.30;;;;;;5075929;28;19909;-73
2022/04/14 06:43:41;;;;;;;;;;;15.50;99.50;;;;;;5075524;28;19916;-73
2022/04/14 06:46:07;;;;;;;;;;;15.50;99.50;;;;;;5075283;28;19927;-73
2022/04/14 06:48:33;;;;;;;;;;;15.50;99.60;;;;;;5075356;28;20315;-73
2022/04/14 06:50:59;;;;;;;;;;;15.50;99.60;;;;;;5075522;28;19913;-72
2022/04/14 06:53:25;;;;;;;;;;;15.70;99.60;;;;;;5075836;28;19908;-72
2022/04/14 06:55:53;;;;;;;;;;;15.70;99.70;;;;;;5075279;28;19962;-72
2022/04/14 06:58:19;;;;;;;;;;;15.60;99.80;;;;;;5075268;28;19908;-74
2022/04/14 07:00:45;;;;;;;;;;;15.80;99.50;;;;;;5075138;28;19908;-73
2022/04/14 07:03:12;;;;;;;;;;;15.90;99.20;;;;;;5075626;28;19962;-72
2022/04/14 07:05:38;;;;;;;;;;;16.00;99.30;;;;;;5075011;28;20011;-73
2022/04/14 07:08:04;;;;;;;;;;;16.00;99.40;;;;;;5075369;28;20098;-73
2022/04/14 07:10:30;;;;;;;;;;;16.20;99.20;;;;;;5075063;28;19909;-74
2022/04/14 07:12:55;;;;;;;;;;;16.30;98.90;;;;;;5075464;28;19908;-72
2022/04/14 07:15:21;;;;;;;;;;;16.20;99.00;;;;;;5074870;28;20379;-74
2022/04/14 07:17:47;;;;;;;;;;;16.20;99.00;;;;;;5074896;28;20353;-73
2022/04/14 07:20:13;;;;;;;;;;;16.20;99.10;;;;;;5074934;28;19915;-72
2022/04/14 07:22:47;;;;;;;;;;;16.20;99.10;;;;;;5074556;28;19920;-74
2022/04/14 07:25:13;;;;;;;;;;;16.20;99.10;;;;;;5074541;28;20402;-73
2022/04/14 07:27:39;;;;;;;;;;;16.30;99.10;;;;;;5074521;28;19908;-74
2022/04/14 07:30:06;;;;;;;;;;;16.40;99.10;;;;;;5074624;28;20341;-72
2022/04/14 07:32:38;;;;;;;;;;;16.60;98.60;;;;;;5074801;28;20318;-72
2022/04/14 07:35:05;;;;;;;;;;;16.70;98.60;;;;;;5074644;28;19962;-73
2022/04/14 07:37:31;;;;;;;;;;;16.80;98.20;;;;;;5074409;28;19948;-73
2022/04/14 07:39:56;;;;;;;;;;;16.80;97.90;;;;;;5074265;28;19970;-73
2022/04/14 07:42:29;;;;;;;;;;;16.60;98.00;;;;;;5074362;28;20284;-73
2022/04/14 07:44:55;;;;;;;;;;;16.80;98.20;;;;;;5074698;28;19912;-74
2022/04/14 07:47:21;;;;;;;;;;;16.80;98.00;;;;;;5074364;28;19909;-73
2022/04/14 07:49:47;;;;;;;;;;;17.00;97.70;;;;;;5073935;28;20361;-73
2022/04/14 07:52:13;;;;;;;;;;;16.90;97.60;;;;;;5073189;28;19938;-73
2022/04/14 07:54:38;;;;;;;;;;;16.90;97.80;;;;;;5073210;28;20350;-73
2022/04/14 07:57:04;;;;;;;;;;;17.10;97.30;;;;;;5073671;28;19995;-73
2022/04/14 07:59:30;;;;;;;;;;;17.20;97.20;;;;;;5055327;28;19978;-74
2022/04/14 08:02:00;;;;;;;;;;;17.30;97.10;;;;;;5073252;28;20025;-73
2022/04/14 08:04:26;;;;;;;;;;;17.40;97.10;;;;;;5073096;28;19919;-73
2022/04/14 08:06:52;;;;;;;;;;;17.50;97.00;;;;;;5073051;28;19908;-73
2022/04/14 08:09:18;;;;;;;;;;;17.50;96.80;;;;;;5073690;28;19912;-73
2022/04/14 08:11:45;;;;;;;;;;;17.50;96.70;;;;;;5073447;28;20269;-74
2022/04/14 08:14:11;;;;;;;;;;;17.40;96.50;;;;;;5073562;28;19908;-74
2022/04/14 08:16:37;;;;;;;;;;;17.50;96.50;;;;;;5071414;28;19918;-73
2022/04/14 08:19:03;;;;;;;;;;;17.50;96.50;;;;;;5051583;28;19909;-74
2022/04/14 08:21:29;;;;;;;;;;;17.60;96.40;;;;;;5053632;28;20365;-74
2022/04/14 08:23:55;;;;;;;;;;;17.50;96.60;;;;;;5054152;28;19912;-73
2022/04/14 08:26:24;;;;;;;;;;;17.70;96.30;;;;;;5054032;28;19974;-73
2022/04/14 08:28:50;;;;;;;;;;;17.80;96.00;;;;;;5053287;28;19909;-73
2022/04/14 08:31:16;;;;;;;;;;;18.00;95.70;;;;;;5053656;28;19916;-74
2022/04/14 08:33:43;;;;;;;;;;;18.10;95.60;;;;;;5061260;28;19909;-73
2022/04/14 08:36:13;;;;;;;;;;;17.90;96.00;;;;;;5053249;28;20468;-74
2022/04/14 08:38:39;;;;;;;;;;;18.10;95.70;;;;;;5053164;28;19942;-73
2022/04/14 08:41:07;;;;;;;;;;;18.40;95.10;;;;;;5062654;28;19954;-73
2022/04/14 08:43:33;;;;;;;;;;;18.40;95.10;;;;;;5073086;28;19908;-74
2022/04/14 08:45:59;;;;;;;;;;;18.40;95.20;;;;;;5064554;28;19979;-74
2022/04/14 08:48:26;;;;;;;;;;;18.40;94.90;;;;;;5073607;28;19991;-74
2022/04/14 08:50:52;;;;;;;;;;;18.20;94.60;;;;;;5072265;28;19915;-74
2022/04/14 08:53:18;;;;;;;;;;;18.10;95.00;;;;;;5072912;28;19909;-73
2022/04/14 08:55:44;;;;;;;;;;;18.10;95.00;;;;;;5072443;28;19916;-73
2022/04/14 08:58:14;;;;;;;;;;;18.40;94.70;;;;;;5072534;28;19983;-72
2022/04/14 09:00:40;;;;;;;;;;;18.40;94.50;;;;;;5072640;28;20339;-74
2022/04/14 09:03:06;;;;;;;;;;;18.60;94.20;;;;;;5072972;28;20028;-73
2022/04/14 09:05:32;;;;;;;;;;;18.60;93.70;;;;;;5072532;28;20061;-73
2022/04/14 09:07:58;;;;;;;;;;;18.70;93.50;;;;;;5054475;28;20023;-72
2022/04/14 09:10:23;;;;;;;;;;;18.60;93.60;;;;;;5072341;28;19966;-73
2022/04/14 09:12:50;;;;;;;;;;;18.30;94.30;;;;;;5072890;28;19908;-73
2022/04/14 09:15:16;;;;;;;;;;;18.40;94.10;;;;;;5072302;28;19919;-73
2022/04/14 09:17:42;;;;;;;;;;;18.60;93.70;;;;;;5076141;28;20007;-73
2022/04/14 09:20:26;;;;;;;;;;;18.70;93.70;;;;;;5076471;28;19919;-73
2022/04/14 09:23:09;;;;;;;;;;;18.70;93.60;;;;;;5076388;28;19920;-72
2022/04/14 09:25:35;;;;;;;;;;;18.90;92.80;;;;;;5076610;28;20249;-74
2022/04/14 09:28:11;;;;;;;;;;;19.00;92.60;;;;;;5076230;28;19920;-74
2022/04/14 09:30:37;;;;;;;;;;;19.10;92.70;;;;;;5076650;28;19908;-74
2022/04/14 09:33:03;;;;;;;;;;;18.90;93.40;;;;;;5076163;28;19908;-72
2022/04/14 09:35:31;;;;;;;;;;;19.10;93.30;;;;;;5076221;28;19919;-72
2022/04/14 09:38:13;;;;;;;;;;;19.20;93.10;;;;;;5076720;28;19912;-73
2022/04/14 09:40:40;;;;;;;;;;;19.30;93.00;;;;;;5076334;28;20013;-74
2022/04/14 09:43:06;;;;;;;;;;;19.50;92.90;;;;;;5076226;28;19955;-74
2022/04/14 09:45:33;;;;;;;;;;;19.60;92.30;;;;;;5057819;28;19917;-74
2022/04/14 09:48:06;;;;;;;;;;;19.50;92.10;;;;;;5075754;28;20257;-72
2022/04/14 09:50:36;;;;;;;;;;;19.30;92.10;;;;;;5075925;28;19915;-73
2022/04/14 09:53:14;;;;;;;;;;;19.20;91.90;;;;;;5057629;28;19908;-73
2022/04/14 09:55:49;;;;;;;;;;;19.20;91.80;;;;;;5076094;28;20257;-73
2022/04/14 09:58:15;;;;;;;;;;;19.10;91.50;;;;;;5057649;28;19909;-74
2022/04/14 10:00:48;;;;;;;;;;;19.10;91.50;;;;;;5075439;28;19920;-74
2022/04/14 10:03:18;;;;;;;;;;;19.20;91.40;;;;;;5075972;28;19908;-74
2022/04/14 10:05:48;;;;;;;;;;;19.50;92.20;;;;;;5075212;28;19956;-74
2022/04/14 10:08:15;;;;;;;;;;;19.60;91.70;;;;;;5075956;28;19920;-73
2022/04/14 10:10:47;;;;;;;;;;;19.80;91.70;;;;;;5075204;28;20390;-74
2022/04/14 10:13:14;;;;;;;;;;;19.90;91.40;;;;;;5075585;28;20047;-73
2022/04/14 10:15:41;;;;;;;;;;;19.80;91.50;;;;;;5075144;28;20356;-74
2022/04/14 10:18:09;;;;;;;;;;;20.00;90.70;;;;;;5075786;28;19909;-74
2022/04/14 10:20:35;;;;;;;;;;;20.00;91.40;;;;;;5075716;28;20321;-74
2022/04/14 10:23:02;;;;;;;;;;;20.10;91.40;;;;;;5075280;28;20000;-73
2022/04/14 10:25:28;;;;;;;;;;;19.90;91.00;;;;;;5075139;28;19917;-73
2022/04/14 10:27:56;;;;;;;;;;;20.30;90.80;;;;;;5074706;28;19931;-73
2022/04/14 10:30:23;;;;;;;;;;;20.60;89.90;;;;;;5075728;28;19908;-73
2022/04/14 10:32:49;;;;;;;;;;;20.30;89.70;;;;;;5075068;28;19913;-72
2022/04/14 10:35:15;;;;;;;;;;;19.90;90.60;;;;;;5075102;28;19931;-73
2022/04/14 10:37:46;;;;;;;;;;;19.40;91.10;;;;;;5074138;28;19920;-72
2022/04/14 10:40:12;;;;;;;;;;;19.40;91.50;;;;;;5055440;28;20349;-73
2022/04/14 10:42:40;;;;;;;;;;;19.80;91.00;;;;;;5056890;28;19915;-73
2022/04/14 10:45:19;;;;;;;;;;;19.90;91.00;;;;;;5075239;28;19916;-73
2022/04/14 10:47:51;;;;;;;;;;;20.30;90.30;;;;;;5074606;28;19967;-74
2022/04/14 10:50:21;;;;;;;;;;;20.30;90.50;;;;;;5074721;28;19908;-74
2022/04/14 10:53:06;;;;;;;;;;;20.30;90.40;;;;;;5075119;28;19912;-73
2022/04/14 10:55:42;;;;;;;;;;;20.70;89.30;;;;;;5075160;28;19995;-73
2022/04/14 10:58:28;;;;;;;;;;;20.70;90.00;;;;;;5060801;28;19970;-74
2022/04/14 11:00:54;;;;;;;;;;;20.50;90.10;;;;;;5055419;28;19948;-74
2022/04/14 11:03:20;;;;;;;;;;;21.00;89.90;;;;;;5054869;28;20000;-71
2022/04/14 11:05:48;;;;;;;;;;;21.00;89.50;;;;;;5054864;28;20051;-72
2022/04/14 11:08:20;;;;;;;;;;;20.80;90.00;;;;;;5054268;28;20300;-72
2022/04/14 11:11:07;;;;;;;;;;;20.60;88.90;;;;;;5054224;28;19909;-73
2022/04/14 11:13:55;;;;;;;;;;;20.10;90.20;;;;;;5054647;28;19932;-72
2022/04/14 11:16:40;;;;;;;;;;;19.90;90.10;;;;;;5054541;28;19937;-72
2022/04/14 11:19:15;;;;;;;;;;;19.80;90.80;;;;;;5055091;28;19908;-72
2022/04/14 11:22:02;;;;;;;;;;;20.10;90.60;;;;;;5054338;28;19974;-73
2022/04/14 11:24:36;;;;;;;;;;;20.30;89.00;;;;;;5054762;28;19924;-73
2022/04/14 11:27:09;;;;;;;;;;;20.20;88.00;;;;;;5054417;28;19913;-72
2022/04/14 11:29:35;;;;;;;;;;;19.80;89.20;;;;;;5054282;28;19909;-74
2022/04/14 11:32:01;;;;;;;;;;;19.60;89.60;;;;;;5054257;28;19909;-72
2022/04/14 11:34:30;;;;;;;;;;;19.90;90.20;;;;;;5073436;28;20045;-73
2022/04/14 11:36:56;;;;;;;;;;;20.00;90.40;;;;;;5074456;28;19909;-73
2022/04/14 11:39:23;;;;;;;;;;;20.10;90.40;;;;;;5055598;28;19922;-73
2022/04/14 11:41:53;;;;;;;;;;;20.10;89.50;;;;;;5074492;28;20280;-76
2022/04/14 11:44:20;;;;;;;;;;;19.90;89.90;;;;;;5074196;28;20008;-74
2022/04/14 11:46:47;;;;;;;;;;;20.20;90.10;;;;;;5074406;28;20004;-73
2022/04/14 11:49:15;;;;;;;;;;;20.50;89.60;;;;;;5074562;28;19909;-73
2022/04/14 11:51:42;;;;;;;;;;;20.60;89.40;;;;;;5074113;28;19908;-73
2022/04/14 11:54:08;;;;;;;;;;;20.70;89.40;;;;;;5073459;28;20046;-73
2022/04/14 11:56:34;;;;;;;;;;;20.90;88.70;;;;;;5073836;28;20222;-73
2022/04/14 11:59:00;;;;;;;;;;;20.30;88.90;;;;;;5073591;28;19915;-74
2022/04/14 12:01:26;;;;;;;;;;;20.20;88.60;;;;;;5073651;28;19909;-74
2022/04/14 12:03:51;;;;;;;;;;;20.00;90.20;;;;;;5074131;28;20003;-74
2022/04/14 12:06:18;;;;;;;;;;;20.20;89.70;;;;;;5073320;28;19963;-74
2022/04/14 12:08:56;;;;;;;;;;;20.00;89.10;;;;;;5073870;28;19916;-73
2022/04/14 12:11:24;;;;;;;;;;;19.90;89.70;;;;;;5073534;28;19908;-74
2022/04/14 12:13:50;;;;;;;;;;;19.50;90.30;;;;;;5073611;28;19908;-74
2022/04/14 12:16:16;;;;;;;;;;;19.30;90.50;;;;;;5073274;28;20079;-74
2022/04/14 12:18:49;;;;;;;;;;;19.40;91.10;;;;;;5055713;28;19974;-75
2022/04/14 12:21:18;;;;;;;;;;;19.60;91.10;;;;;;5073605;28;19951;-75
2022/04/14 12:23:47;;;;;;;;;;;19.90;91.10;;;;;;5073462;28;19917;-75
2022/04/14 12:26:14;;;;;;;;;;;19.70;91.30;;;;;;5073389;28;19917;-74
2022/04/14 12:28:42;;;;;;;;;;;19.50;91.50;;;;;;5072535;28;20506;-74
2022/04/14 12:31:11;;;;;;;;;;;19.40;92.10;;;;;;5073274;28;19909;-74
2022/04/14 12:33:37;;;;;;;;;;;19.80;91.70;;;;;;5055335;28;20271;-74
2022/04/14 12:36:07;;;;;;;;;;;20.10;91.50;;;;;;5073696;28;19912;-74
2022/04/14 12:38:46;;;;;;;;;;;19.80;91.60;;;;;;5073391;28;19916;-74
2022/04/14 12:41:19;;;;;;;;;;;19.60;91.60;;;;;;5073176;28;19908;-75
2022/04/14 12:43:47;;;;;;;;;;;19.80;91.50;;;;;;5073068;28;19915;-75
2022/04/14 12:46:31;;;;;;;;;;;19.70;90.90;;;;;;5073206;28;19924;-75
2022/04/14 12:49:00;;;;;;;;;;;19.80;91.60;;;;;;5073148;28;19947;-75
2022/04/14 12:51:32;;;;;;;;;;;20.10;91.60;;;;;;5072980;28;19909;-75
2022/04/14 12:53:59;;;;;;;;;;;20.00;91.60;;;;;;5073125;28;19908;-75
2022/04/14 12:56:25;;;;;;;;;;;20.10;91.50;;;;;;5072720;28;19908;-74
2022/04/14 12:59:07;;;;;;;;;;;20.10;91.60;;;;;;5054870;28;19924;-75
2022/04/14 13:01:50;;;;;;;;;;;20.00;91.30;;;;;;5073218;28;20319;-74
2022/04/14 13:04:16;;;;;;;;;;;20.00;91.40;;;;;;5072656;28;19908;-74
2022/04/14 13:06:55;;;;;;;;;;;20.30;91.20;;;;;;5072784;28;19996;-74
2022/04/14 13:09:21;;;;;;;;;;;20.10;91.40;;;;;;5072921;28;19912;-72
2022/04/14 13:11:48;;;;;;;;;;;20.00;91.40;;;;;;5073117;28;19912;-73
2022/04/14 13:14:17;;;;;;;;;;;19.80;91.80;;;;;;5072662;28;19908;-74
2022/04/14 13:16:45;;;;;;;;;;;20.10;91.40;;;;;;5072210;28;19908;-73
2022/04/14 13:19:11;;;;;;;;;;;19.90;91.30;;;;;;5072879;28;20002;-75
2022/04/14 13:21:37;;;;;;;;;;;19.90;91.60;;;;;;5072356;28;19970;-74
2022/04/14 13:24:03;;;;;;;;;;;19.60;91.60;;;;;;5072618;28;20357;-74
2022/04/14 13:26:29;;;;;;;;;;;19.40;91.90;;;;;;5073232;28;19946;-74
2022/04/14 13:28:55;;;;;;;;;;;19.30;91.90;;;;;;5073040;28;20353;-77
2022/04/14 13:31:21;;;;;;;;;;;19.10;92.70;;;;;;5053218;28;19915;-73
2022/04/14 13:33:47;;;;;;;;;;;19.00;92.70;;;;;;5058251;28;19962;-74
2022/04/14 13:36:13;;;;;;;;;;;19.00;92.80;;;;;;5052697;28;19975;-74
2022/04/14 13:38:39;;;;;;;;;;;18.90;93.00;;;;;;5053144;28;20369;-74
2022/04/14 13:41:04;;;;;;;;;;;18.70;93.20;;;;;;5052553;28;19916;-74
2022/04/14 13:43:30;;;;;;;;;;;18.90;93.10;;;;;;5052998;28;20354;-73
2022/04/14 13:45:56;;;;;;;;;;;18.90;93.00;;;;;;5052319;28;19921;-74
2022/04/14 13:48:22;;;;;;;;;;;19.10;93.30;;;;;;5053011;28;19912;-75
2022/04/14 13:50:48;;;;;;;;;;;18.90;93.00;;;;;;5065707;28;19908;-72
2022/04/14 13:53:16;;;;;;;;;;;18.80;93.30;;;;;;5072803;28;19974;-70
2022/04/14 13:55:42;;;;;;;;;;;18.60;93.90;;;;;;5056134;28;19916;-73
2022/04/14 13:58:07;;;;;;;;;;;18.80;93.30;;;;;;5052164;28;20229;-73
2022/04/14 14:00:33;;;;;;;;;;;18.80;93.40;;;;;;5052473;28;19909;-73
2022/04/14 14:02:59;;;;;;;;;;;18.70;93.30;;;;;;5036848;28;19920;-72
2022/04/14 14:05:25;;;;;;;;;;;18.50;93.50;;;;;;5056428;28;19924;-73
2022/04/14 14:07:51;;;;;;;;;;;18.40;93.60;;;;;;5056137;28;19909;-73
2022/04/14 14:10:17;;;;;;;;;;;18.30;93.60;;;;;;5056107;28;20241;-73
2022/04/14 14:12:43;;;;;;;;;;;18.30;93.70;;;;;;5056075;28;20388;-73
2022/04/14 14:15:10;;;;;;;;;;;18.40;93.60;;;;;;5055803;28;20003;-72
2022/04/14 14:17:38;;;;;;;;;;;18.30;93.80;;;;;;5056143;28;19909;-74